createdAt,value
2022-08-07T00:00:26.145Z,24.88
2022-08-07T00:02:56.869Z,24.90
2022-08-07T00:05:24.868Z,24.94
2022-08-07T00:07:59.848Z,24.88
2022-08-07T00:10:30.430Z,24.87
2022-08-07T00:13:09.836Z,24.93
2022-08-07T00:15:51.386Z,24.94
2022-08-07T00:18:24.624Z,24.91
2022-08-07T00:21:01.429Z,24.95
2022-08-07T00:23:31.734Z,25.00
2022-08-07T00:26:12.923Z,24.97
2022-08-07T00:28:56.534Z,25.03
2022-08-07T00:31:37.785Z,25.04
2022-08-07T00:34:08.890Z,25.01
2022-08-07T00:36:38.558Z,24.99
2022-08-07T00:39:12.640Z,24.97
2022-08-07T00:41:53.923Z,25.00
2022-08-07T00:44:29.904Z,24.97
2022-08-07T00:46:57.119Z,24.98
2022-08-07T00:50:19.337Z,24.97
2022-08-07T00:52:14.069Z,24.94
2022-08-07T00:54:45.015Z,24.96
2022-08-07T00:57:13.255Z,24.95
2022-08-07T00:59:41.956Z,24.91
2022-08-07T01:02:28.127Z,24.94
2022-08-07T01:04:58.732Z,24.96
2022-08-07T01:07:29.659Z,24.92
2022-08-07T01:10:04.658Z,24.89
2022-08-07T01:12:37.775Z,24.87
2022-08-07T01:15:11.777Z,24.71
2022-08-07T01:17:44.793Z,24.64
2022-08-07T01:20:16.533Z,24.66
2022-08-07T01:22:46.978Z,24.68
2022-08-07T01:25:53.913Z,24.71
2022-08-07T01:28:14.100Z,24.75
2022-08-07T01:30:42.443Z,24.74
2022-08-07T01:33:11.175Z,24.74
2022-08-07T01:35:54.184Z,24.80
2022-08-07T01:38:25.044Z,24.83
2022-08-07T01:40:59.409Z,24.85
2022-08-07T01:43:34.633Z,24.85
2022-08-07T01:46:08.405Z,24.82
2022-08-07T01:48:46.696Z,24.80
2022-08-07T01:52:01.088Z,24.83
2022-08-07T01:54:32.911Z,24.84
2022-08-07T01:57:24.150Z,24.79
2022-08-07T02:00:01.017Z,24.83
2022-08-07T02:03:18.702Z,24.82
2022-08-07T02:06:01.086Z,24.87
2022-08-07T02:08:37.905Z,24.84
2022-08-07T02:11:08.956Z,24.79
2022-08-07T02:13:57.697Z,24.82
2022-08-07T02:16:33.391Z,24.78
2022-08-07T02:19:05.591Z,24.77
2022-08-07T02:21:57.039Z,24.78
2022-08-07T02:24:29.562Z,24.77
2022-08-07T02:27:01.375Z,24.71
2022-08-07T02:29:32.598Z,24.65
2022-08-07T02:32:04.528Z,24.65
2022-08-07T02:34:34.580Z,24.68
2022-08-07T02:37:08.724Z,24.68
2022-08-07T02:39:43.518Z,24.69
2022-08-07T02:42:31.047Z,24.63
2022-08-07T02:45:07.603Z,24.61
2022-08-07T02:47:50.730Z,24.62
2022-08-07T02:50:20.048Z,24.63
2022-08-07T02:53:10.976Z,24.50
2022-08-07T02:56:03.371Z,24.47
2022-08-07T02:58:35.657Z,24.49
2022-08-07T03:01:05.973Z,24.47
2022-08-07T03:03:50.464Z,24.45
2022-08-07T03:06:33.255Z,24.42
2022-08-07T03:09:05.065Z,24.44
2022-08-07T03:11:38.598Z,24.39
2022-08-07T03:14:07.948Z,24.31
2022-08-07T03:16:38.492Z,24.34
2022-08-07T03:19:07.871Z,24.30
2022-08-07T03:21:37.226Z,24.27
2022-08-07T03:24:20.657Z,24.25
2022-08-07T03:26:58.144Z,24.25
2022-08-07T03:29:51.368Z,24.23
2022-08-07T03:32:28.319Z,24.18
2022-08-07T03:35:17.043Z,24.19
2022-08-07T03:37:54.020Z,24.11
2022-08-07T03:40:36.101Z,24.13
2022-08-07T03:43:14.392Z,24.19
2022-08-07T03:45:48.475Z,24.22
2022-08-07T03:48:20.944Z,24.15
2022-08-07T03:50:56.214Z,24.14
2022-08-07T03:53:50.083Z,24.08
2022-08-07T03:56:32.789Z,24.03
2022-08-07T03:59:08.301Z,23.98
2022-08-07T04:01:43.164Z,24.00
2022-08-07T04:04:17.739Z,24.00
2022-08-07T04:06:50.825Z,23.97
2022-08-07T04:09:23.241Z,23.90
2022-08-07T04:12:21.399Z,23.93
2022-08-07T04:14:46.334Z,23.90
2022-08-07T04:17:21.066Z,23.87
2022-08-07T04:19:54.497Z,23.82
2022-08-07T04:22:29.207Z,23.77
2022-08-07T04:25:01.967Z,23.83
2022-08-07T04:27:35.882Z,23.83
2022-08-07T04:30:21.670Z,23.77
2022-08-07T04:33:07.772Z,23.76
2022-08-07T04:35:39.147Z,23.76
2022-08-07T04:38:13.326Z,23.77
2022-08-07T04:40:52.273Z,23.74
2022-08-07T04:44:11.964Z,23.75
2022-08-07T04:46:34.319Z,23.73
2022-08-07T04:49:17.524Z,23.75
2022-08-07T04:52:08.832Z,23.78
2022-08-07T04:55:15.182Z,23.78
2022-08-07T04:58:16.448Z,23.81
2022-08-07T05:01:18.366Z,23.91
2022-08-07T05:04:06.786Z,23.92
2022-08-07T05:06:43.581Z,23.93
2022-08-07T05:09:45.360Z,23.97
2022-08-07T05:12:26.535Z,23.96
2022-08-07T05:15:23.382Z,24.04
2022-08-07T05:18:01.763Z,24.06
2022-08-07T05:20:45.100Z,24.08
2022-08-07T05:23:19.468Z,24.10
2022-08-07T05:26:13.581Z,24.15
2022-08-07T05:28:48.653Z,24.18
2022-08-07T05:31:20.664Z,24.22
2022-08-07T05:34:04.881Z,24.27
2022-08-07T05:36:39.113Z,24.33
2022-08-07T05:40:06.772Z,24.41
2022-08-07T05:42:08.805Z,24.39
2022-08-07T05:44:46.650Z,24.43
2022-08-07T05:48:01.969Z,24.44
2022-08-07T05:50:19.808Z,24.46
2022-08-07T05:52:48.221Z,24.48
2022-08-07T05:55:16.027Z,24.50
2022-08-07T05:57:47.565Z,24.56
2022-08-07T06:00:17.999Z,24.58
2022-08-07T06:03:01.819Z,24.60
2022-08-07T06:05:31.801Z,24.65
2022-08-07T06:08:29.036Z,24.66
2022-08-07T06:10:54.898Z,24.67
2022-08-07T06:14:10.673Z,24.72
2022-08-07T06:16:13.534Z,24.75
2022-08-07T06:18:43.388Z,24.79
2022-08-07T06:22:15.646Z,24.77
2022-08-07T06:24:46.035Z,24.81
2022-08-07T06:26:55.354Z,24.80
2022-08-07T06:29:29.757Z,24.69
2022-08-07T06:31:57.469Z,24.74
2022-08-07T06:34:29.812Z,24.73
2022-08-07T06:36:59.404Z,24.67
2022-08-07T06:40:16.014Z,24.68
2022-08-07T06:42:34.980Z,24.71
2022-08-07T06:45:18.526Z,24.68
2022-08-07T06:47:58.601Z,24.64
2022-08-07T06:50:43.311Z,24.60
2022-08-07T06:55:27.819Z,24.57
2022-08-07T06:56:14.841Z,24.52
2022-08-07T07:00:13.436Z,24.52
2022-08-07T07:01:44.161Z,24.47
2022-08-07T07:04:28.270Z,24.50
2022-08-07T07:07:02.387Z,24.40
2022-08-07T07:09:45.195Z,24.42
2022-08-07T07:12:38.303Z,24.30
2022-08-07T07:15:35.718Z,24.27
2022-08-07T07:18:47.487Z,24.21
2022-08-07T07:21:22.148Z,24.21
2022-08-07T07:24:09.335Z,24.22
2022-08-07T07:26:41.228Z,24.24
2022-08-07T07:29:56.342Z,24.22
2022-08-07T07:32:14.401Z,24.27
2022-08-07T07:34:52.605Z,24.36
2022-08-07T07:37:45.480Z,24.43
2022-08-07T07:40:16.520Z,24.49
2022-08-07T07:42:50.858Z,24.52
2022-08-07T07:46:33.374Z,24.67
2022-08-07T07:48:12.890Z,24.77
2022-08-07T07:51:02.601Z,24.96
2022-08-07T07:53:51.574Z,25.02
2022-08-07T07:56:30.245Z,24.97
2022-08-07T07:59:01.678Z,24.84
2022-08-07T08:02:04.851Z,24.79
2022-08-07T08:04:25.490Z,24.68
2022-08-07T08:06:53.885Z,24.72
2022-08-07T08:09:25.325Z,24.73
2022-08-07T08:12:01.854Z,24.80
2022-08-07T08:14:36.478Z,24.85
2022-08-07T08:17:55.333Z,24.85
2022-08-07T08:20:19.385Z,24.95
2022-08-07T08:23:12.869Z,25.03
2022-08-07T08:26:06.930Z,25.07
2022-08-07T08:28:43.295Z,25.10
2022-08-07T08:31:22.640Z,25.16
2022-08-07T08:33:55.777Z,25.20
2022-08-07T08:36:29.738Z,25.25
2022-08-07T08:39:01.659Z,25.31
2022-08-07T08:42:10.187Z,25.33
2022-08-07T08:44:46.467Z,25.35
2022-08-07T08:47:26.467Z,25.37
2022-08-07T08:50:08.788Z,25.51
2022-08-07T08:52:54.233Z,25.49
2022-08-07T08:55:53.189Z,25.51
2022-08-07T08:58:39.967Z,25.37
2022-08-07T09:01:29.684Z,25.46
2022-08-07T09:04:41.360Z,25.55
2022-08-07T09:07:15.907Z,25.52
2022-08-07T09:09:59.116Z,25.55
2022-08-07T09:13:15.034Z,25.60
2022-08-07T09:16:22.505Z,25.55
2022-08-07T09:19:03.440Z,25.70
2022-08-07T09:22:22.850Z,25.66
2022-08-07T09:24:59.749Z,25.55
2022-08-07T09:28:00.730Z,25.57
2022-08-07T09:30:54.266Z,25.54
2022-08-07T09:33:56.566Z,25.59
2022-08-07T09:36:37.003Z,25.75
2022-08-07T09:39:55.093Z,25.79
2022-08-07T09:42:29.241Z,25.88
2022-08-07T09:47:42.409Z,26.02
2022-08-07T09:48:11.718Z,25.95
2022-08-07T09:50:54.316Z,25.89
2022-08-07T09:53:24.622Z,25.88
2022-08-07T09:56:15.121Z,25.88
2022-08-07T09:59:22.039Z,25.90
2022-08-07T10:02:37.758Z,25.81
2022-08-07T10:05:21.297Z,25.75
2022-08-07T10:08:53.316Z,25.70
2022-08-07T10:12:00.403Z,25.71
2022-08-07T10:14:38.844Z,25.62
2022-08-07T10:17:18.203Z,25.60
2022-08-07T10:20:00.712Z,25.60
2022-08-07T10:22:46.748Z,25.58
2022-08-07T10:25:42.224Z,25.54
2022-08-07T10:28:15.176Z,25.56
2022-08-07T10:30:57.183Z,25.74
2022-08-07T10:34:32.212Z,25.74
2022-08-07T10:38:00.716Z,25.83
2022-08-07T10:40:33.392Z,26.01
2022-08-07T10:43:34.521Z,26.11
2022-08-07T10:46:09.477Z,26.24
2022-08-07T10:48:55.342Z,26.35
2022-08-07T10:51:57.570Z,26.26
2022-08-07T10:54:55.176Z,26.34
2022-08-07T10:57:56.197Z,26.50
2022-08-07T11:00:39.423Z,26.55
2022-08-07T11:03:17.018Z,26.72
2022-08-07T11:06:02.881Z,26.82
2022-08-07T11:08:31.985Z,26.89
2022-08-07T11:11:03.091Z,27.00
2022-08-07T11:14:44.286Z,27.07
2022-08-07T11:17:02.146Z,27.07
2022-08-07T11:19:46.357Z,27.11
2022-08-07T11:22:37.191Z,27.19
2022-08-07T11:25:49.975Z,27.16
2022-08-07T11:28:41.928Z,27.12
2022-08-07T11:31:22.655Z,27.18
2022-08-07T11:34:28.826Z,27.13
2022-08-07T11:37:57.231Z,26.98
2022-08-07T11:40:49.727Z,26.99
2022-08-07T11:43:41.353Z,26.98
2022-08-07T11:46:32.415Z,26.92
2022-08-07T11:50:25.222Z,26.77
2022-08-07T11:52:45.920Z,26.69
2022-08-07T11:56:09.553Z,26.74
2022-08-07T11:58:43.422Z,26.65
2022-08-07T12:01:59.998Z,26.60
2022-08-07T12:04:48.748Z,26.43
2022-08-07T12:07:53.780Z,26.33
2022-08-07T12:10:41.889Z,26.26
2022-08-07T12:13:40.995Z,26.18
2022-08-07T12:16:18.753Z,26.17
2022-08-07T12:19:14.776Z,26.15
2022-08-07T12:21:55.693Z,26.19
2022-08-07T12:26:03.354Z,26.08
2022-08-07T12:28:40.120Z,26.14
2022-08-07T12:31:27.108Z,26.18
2022-08-07T12:34:16.244Z,26.11
2022-08-07T12:36:50.037Z,26.20
2022-08-07T12:39:44.087Z,26.23
2022-08-07T12:42:10.293Z,26.27
2022-08-07T12:44:47.797Z,26.36
2022-08-07T12:47:31.832Z,26.41
2022-08-07T12:50:39.172Z,26.40
2022-08-07T12:53:17.969Z,26.34
2022-08-07T12:56:03.952Z,26.47
2022-08-07T12:58:39.685Z,26.54
2022-08-07T13:01:34.777Z,26.59
2022-08-07T13:05:01.984Z,26.65
2022-08-07T13:08:14.623Z,26.71
2022-08-07T13:11:07.328Z,26.66
2022-08-07T13:14:02.063Z,26.73
2022-08-07T13:16:39.440Z,26.87
2022-08-07T13:19:21.952Z,26.82
2022-08-07T13:22:27.527Z,26.94
2022-08-07T13:25:02.456Z,27.06
2022-08-07T13:28:10.861Z,27.07
2022-08-07T13:30:41.023Z,27.15
2022-08-07T13:34:31.913Z,27.15
2022-08-07T13:36:25.880Z,27.26
2022-08-07T13:39:48.946Z,27.31
2022-08-07T13:42:14.556Z,27.27
2022-08-07T13:44:55.472Z,27.31
2022-08-07T13:47:40.992Z,27.36
2022-08-07T13:50:34.579Z,27.41
2022-08-07T13:53:21.735Z,27.40
2022-08-07T13:55:54.676Z,27.37
2022-08-07T13:58:56.476Z,27.30
2022-08-07T14:01:26.524Z,27.30
2022-08-07T14:04:07.236Z,27.30
2022-08-07T14:06:39.028Z,27.35
2022-08-07T14:09:09.947Z,27.30
2022-08-07T14:12:01.071Z,27.22
2022-08-07T14:15:00.503Z,27.30
2022-08-07T14:17:51.548Z,27.32
2022-08-07T14:20:40.411Z,27.28
2022-08-07T14:23:14.939Z,27.31
2022-08-07T14:26:05.404Z,27.27
2022-08-07T14:31:26.057Z,27.28
2022-08-07T14:34:12.272Z,27.22
2022-08-07T14:36:56.053Z,27.24
2022-08-07T14:40:18.233Z,27.30
2022-08-07T14:42:20.617Z,27.23
2022-08-07T14:44:59.850Z,27.22
2022-08-07T14:47:32.610Z,27.22
2022-08-07T14:50:06.780Z,27.31
2022-08-07T14:52:39.437Z,27.30
2022-08-07T14:55:10.052Z,27.33
2022-08-07T14:57:57.953Z,27.28
2022-08-07T15:00:31.068Z,27.28
2022-08-07T15:03:17.482Z,27.27
2022-08-07T15:05:54.696Z,27.32
2022-08-07T15:08:47.562Z,27.42
2022-08-07T15:11:53.919Z,27.40
2022-08-07T15:14:16.415Z,27.38
2022-08-07T15:16:54.853Z,27.44
2022-08-07T15:20:31.534Z,27.45
2022-08-07T15:22:29.080Z,27.60
2022-08-07T15:25:18.319Z,27.75
2022-08-07T15:31:04.660Z,28.25
2022-08-07T15:33:33.721Z,28.51
2022-08-07T15:36:05.762Z,28.70
2022-08-07T15:42:44.755Z,28.99
2022-08-07T15:44:17.267Z,29.10
2022-08-07T15:46:52.614Z,29.03
2022-08-07T15:50:05.215Z,29.02
2022-08-07T15:52:29.995Z,28.95
2022-08-07T15:55:09.063Z,28.95
2022-08-07T15:57:48.794Z,28.93
2022-08-07T16:00:31.920Z,28.87
2022-08-07T16:03:46.765Z,28.90
2022-08-07T16:06:11.834Z,28.84
2022-08-07T16:08:46.691Z,28.81
2022-08-07T16:11:32.409Z,28.85
2022-08-07T16:14:19.126Z,28.82
2022-08-07T16:16:56.797Z,28.79
2022-08-07T16:19:59.342Z,28.73
2022-08-07T16:22:58.217Z,28.72
2022-08-07T16:26:01.815Z,28.70
2022-08-07T16:30:07.090Z,28.66
2022-08-07T16:32:02.143Z,28.61
2022-08-07T16:34:59.467Z,28.78
2022-08-07T16:38:05.267Z,28.80
2022-08-07T16:40:56.943Z,28.83
2022-08-07T16:44:05.686Z,28.82
2022-08-07T16:47:16.376Z,28.76
2022-08-07T16:50:27.246Z,28.71
2022-08-07T16:53:20.775Z,28.64
2022-08-07T16:55:58.916Z,28.56
2022-08-07T16:59:14.234Z,28.53
2022-08-07T17:02:03.697Z,28.47
2022-08-07T17:04:59.315Z,28.47
2022-08-07T17:07:55.885Z,28.39
2022-08-07T17:10:32.379Z,28.34
2022-08-07T17:13:16.756Z,28.25
2022-08-07T17:16:02.437Z,28.20
2022-08-07T17:18:36.701Z,28.17
2022-08-07T17:21:18.805Z,28.12
2022-08-07T17:24:01.998Z,28.12
2022-08-07T17:26:51.370Z,28.01
2022-08-07T17:30:15.858Z,27.98
2022-08-07T17:32:21.138Z,27.88
2022-08-07T17:35:51.645Z,27.85
2022-08-07T17:38:33.801Z,27.74
2022-08-07T17:42:02.821Z,27.70
2022-08-07T17:44:14.729Z,27.63
2022-08-07T17:46:55.577Z,27.60
2022-08-07T17:49:53.532Z,27.55
2022-08-07T17:52:46.424Z,27.47
2022-08-07T17:56:00.349Z,27.39
2022-08-07T17:58:30.169Z,27.33
2022-08-07T18:01:02.805Z,27.29
2022-08-07T18:04:07.350Z,27.21
2022-08-07T18:06:43.130Z,27.17
2022-08-07T18:09:19.195Z,27.12
2022-08-07T18:12:48.069Z,27.05
2022-08-07T18:15:42.735Z,26.99
2022-08-07T18:21:00.778Z,26.92
2022-08-07T18:21:42.238Z,26.87
2022-08-07T18:24:06.956Z,26.78
2022-08-07T18:26:40.510Z,26.73
2022-08-07T18:30:04.193Z,26.66
2022-08-07T18:32:20.163Z,26.61
2022-08-07T18:35:11.680Z,26.56
2022-08-07T18:38:55.691Z,26.49
2022-08-07T18:41:09.420Z,26.40
2022-08-07T18:43:57.263Z,26.36
2022-08-07T18:46:51.127Z,26.29
2022-08-07T18:50:31.741Z,26.18
2022-08-07T18:53:12.859Z,26.13
2022-08-07T18:55:57.220Z,26.11
2022-08-07T18:58:51.388Z,26.05
2022-08-07T19:02:18.632Z,25.96
2022-08-07T19:04:59.457Z,25.92
2022-08-07T19:07:51.825Z,25.79
2022-08-07T19:10:31.411Z,25.73
2022-08-07T19:13:50.276Z,25.72
2022-08-07T19:17:06.661Z,25.69
2022-08-07T19:19:54.995Z,25.67
2022-08-07T19:22:53.198Z,25.66
2022-08-07T19:26:25.178Z,25.64
2022-08-07T19:30:57.473Z,25.60
2022-08-07T19:31:38.170Z,25.52
2022-08-07T19:34:06.655Z,25.47
2022-08-07T19:36:40.987Z,25.41
2022-08-07T19:39:11.685Z,25.36
2022-08-07T19:42:06.183Z,25.30
2022-08-07T19:44:40.977Z,25.27
2022-08-07T19:47:11.832Z,25.21
2022-08-07T19:49:57.257Z,25.16
2022-08-07T19:52:27.949Z,25.09
2022-08-07T19:54:57.318Z,25.02
2022-08-07T19:58:00.786Z,24.99
2022-08-07T20:00:27.923Z,24.96
2022-08-07T20:03:02.216Z,24.90
2022-08-07T20:06:01.370Z,24.89
2022-08-07T20:08:31.810Z,24.86
2022-08-07T20:11:03.944Z,24.83
2022-08-07T20:13:47.700Z,24.75
2022-08-07T20:16:34.911Z,24.73
2022-08-07T20:19:05.980Z,24.72
2022-08-07T20:21:42.103Z,24.69
2022-08-07T20:24:22.728Z,24.64
2022-08-07T20:26:54.652Z,24.62
2022-08-07T20:29:49.323Z,24.60
2022-08-07T20:32:22.950Z,24.53
2022-08-07T20:34:56.355Z,24.51
2022-08-07T20:37:29.689Z,24.45
2022-08-07T20:40:05.305Z,24.44
2022-08-07T20:42:56.135Z,24.40
2022-08-07T20:45:33.224Z,24.35
2022-08-07T20:48:29.022Z,24.29
2022-08-07T20:51:01.236Z,24.21
2022-08-07T20:54:04.580Z,24.11
2022-08-07T20:56:30.564Z,24.11
2022-08-07T20:59:05.343Z,24.07
2022-08-07T21:01:45.576Z,24.04
2022-08-07T21:04:28.647Z,23.96
2022-08-07T21:07:04.531Z,23.94
2022-08-07T21:09:52.711Z,23.88
2022-08-07T21:12:30.988Z,23.86
2022-08-07T21:15:00.867Z,23.81
2022-08-07T21:18:02.603Z,23.81
2022-08-07T21:20:29.550Z,23.80
2022-08-07T21:23:07.693Z,23.75
2022-08-07T21:25:56.498Z,23.67
2022-08-07T21:29:15.757Z,23.59
2022-08-07T21:32:43.892Z,23.54
2022-08-07T21:35:01.390Z,23.50
2022-08-07T21:37:58.383Z,23.49
2022-08-07T21:40:35.633Z,23.43
2022-08-07T21:43:14.219Z,23.41
2022-08-07T21:46:10.024Z,23.38
2022-08-07T21:48:55.826Z,23.34
2022-08-07T21:51:32.890Z,23.32
2022-08-07T21:55:06.756Z,23.29
2022-08-07T21:58:04.542Z,23.25
2022-08-07T22:00:32.742Z,23.25
2022-08-07T22:03:17.271Z,23.24
2022-08-07T22:06:03.797Z,23.24
2022-08-07T22:08:40.908Z,23.21
2022-08-07T22:11:11.156Z,23.17
2022-08-07T22:13:52.039Z,23.15
2022-08-07T22:16:38.451Z,23.14
2022-08-07T22:19:29.540Z,23.13
2022-08-07T22:22:28.963Z,23.08
2022-08-07T22:25:05.672Z,23.05
2022-08-07T22:28:07.858Z,22.99
2022-08-07T22:30:54.720Z,22.91
2022-08-07T22:33:52.817Z,22.87
2022-08-07T22:36:35.956Z,22.86
2022-08-07T22:39:30.000Z,22.84
2022-08-07T22:42:25.674Z,22.84
2022-08-07T22:44:58.601Z,22.85
2022-08-07T22:48:04.299Z,22.78
2022-08-07T22:51:08.676Z,22.78
2022-08-07T22:54:06.951Z,22.78
2022-08-07T22:56:54.756Z,22.75
2022-08-07T22:59:33.904Z,22.67
2022-08-07T23:02:22.694Z,22.60
2022-08-07T23:06:08.455Z,22.58
2022-08-07T23:08:22.314Z,22.56
2022-08-07T23:11:49.370Z,22.54
2022-08-07T23:14:48.457Z,22.48
2022-08-07T23:17:26.005Z,22.52
2022-08-07T23:20:51.224Z,22.48
2022-08-07T23:24:06.887Z,22.44
2022-08-07T23:27:01.253Z,22.52
2022-08-07T23:29:43.597Z,22.60
2022-08-07T23:34:18.617Z,22.62
2022-08-07T23:35:37.546Z,22.59
2022-08-07T23:38:10.834Z,22.53
2022-08-07T23:40:53.484Z,22.52
2022-08-07T23:43:39.221Z,22.46
2022-08-07T23:46:42.970Z,22.44
2022-08-07T23:49:50.854Z,22.45
2022-08-07T23:53:00.214Z,22.41
2022-08-07T23:55:52.413Z,22.35
2022-08-07T23:58:27.076Z,22.37
